Time;durP1;ratioP1;P1;durP2;ratioP2;P2;SDS_P1;SDS_P2;PMS_P1;PMS_P2;Temp;Humidity;BMP_temperature;BMP_pressure;BME280_temperature;BME280_humidity;BME280_pressure;Samples;Min_cycle;Max_cycle;Signal;HPM_P1;HPM_P2
2023/04/05 00:00:24;;;;;;;;;;;;;;;1.27;72.63;94151.66;5063144;23;19924;-69
2023/04/05 00:02:28;;;;;;;;;;;;;;;1.21;71.84;94160.66;5064745;23;19931;-75
2023/04/05 00:04:33;;;;;;;;;;;;;;;1.04;72.52;94161.09;5063907;23;20005;-75
2023/04/05 00:06:36;;;;;;;;;;;;;;;0.93;73.31;94153.34;5065268;23;20360;-74
2023/04/05 00:08:38;;;;;;;;;;;;;;;0.98;73.04;94151.25;5040042;23;19921;-75
2023/04/05 00:10:39;;;;;;;;;;;;;;;1.03;73.09;94159.44;5039358;23;20050;-74
2023/04/05 00:12:41;;;;;;;;;;;;;;;1.16;72.76;94149.03;5040175;23;19956;-75
2023/04/05 00:14:43;;;;;;;;;;;;;;;1.18;72.48;94147.16;5038914;23;19957;-74
2023/04/05 00:16:44;;;;;;;;;;;;;;;1.12;72.47;94155.34;5065286;23;19921;-74
2023/04/05 00:18:50;;;;;;;;;;;;;;;1.04;72.47;94152.56;5039946;23;20674;-73
2023/04/05 00:20:52;;;;;;;;;;;;;;;1.08;72.49;94139.31;5065306;23;19945;-75
2023/04/05 00:22:53;;;;;;;;;;;;;;;1.15;72.46;94147.41;5065489;23;19921;-75
2023/04/05 00:24:55;;;;;;;;;;;;;;;1.12;72.65;94157.94;5065121;23;19931;-74
2023/04/05 00:26:57;;;;;;;;;;;;;;;1.14;72.94;94146.59;5065321;23;19921;-74
2023/04/05 00:28:58;;;;;;;;;;;;;;;1.22;72.74;94146.81;5065483;23;20399;-75
2023/04/05 00:31:00;;;;;;;;;;;;;;;1.22;72.11;94156.31;5065021;23;19925;-75
2023/04/05 00:33:01;;;;;;;;;;;;;;;1.37;71.73;94137.06;5064708;23;20079;-75
2023/04/05 00:35:03;;;;;;;;;;;;;;;1.29;71.54;94152.34;5065003;23;19959;-75
2023/04/05 00:37:05;;;;;;;;;;;;;;;1.26;71.17;94149.16;5039439;23;19925;-75
2023/04/05 00:39:06;;;;;;;;;;;;;;;1.32;70.97;94148.72;5065739;23;19921;-74
2023/04/05 00:41:09;;;;;;;;;;;;;;;1.36;70.85;94135.44;5065510;23;19968;-74
2023/04/05 00:43:11;;;;;;;;;;;;;;;1.37;70.26;94146.59;5039392;23;19921;-75
2023/04/05 00:45:12;;;;;;;;;;;;;;;1.33;70.69;94156.31;5014160;23;19999;-69
2023/04/05 00:47:14;;;;;;;;;;;;;;;1.25;70.93;94150.94;5064325;23;20343;-70
2023/04/05 00:49:16;;;;;;;;;;;;;;;1.24;70.93;94154.44;5067609;23;19925;-70
2023/04/05 00:51:19;;;;;;;;;;;;;;;1.28;70.87;94155.84;5040557;23;20328;-70
2023/04/05 00:53:20;;;;;;;;;;;;;;;1.30;70.64;94148.00;5041368;23;20402;-70
2023/04/05 00:55:22;;;;;;;;;;;;;;;1.43;70.61;94153.88;5041049;23;20401;-69
2023/04/05 00:57:25;;;;;;;;;;;;;;;1.33;70.12;94170.97;5016176;23;20442;-70
2023/04/05 00:59:30;;;;;;;;;;;;;;;1.32;70.26;94156.44;5038884;23;19932;-69
2023/04/05 01:01:31;;;;;;;;;;;;;;;1.44;70.41;94165.81;5066256;23;19924;-70
2023/04/05 01:03:33;;;;;;;;;;;;;;;1.41;70.29;94155.75;5040345;23;19993;-70
2023/04/05 01:05:35;;;;;;;;;;;;;;;1.43;70.49;94154.69;5066449;23;19920;-69
2023/04/05 01:07:39;;;;;;;;;;;;;;;1.56;70.13;94156.31;5066119;23;19925;-69
2023/04/05 01:09:44;;;;;;;;;;;;;;;1.51;69.93;94161.84;5066477;23;19921;-69
2023/04/05 01:11:45;;;;;;;;;;;;;;;1.27;70.55;94158.53;5066268;23;20355;-70
2023/04/05 01:13:48;;;;;;;;;;;;;;;1.19;70.64;94165.09;5040853;23;19925;-71
2023/04/05 01:15:49;;;;;;;;;;;;;;;1.24;70.65;94167.34;5066157;23;19921;-70
2023/04/05 01:17:53;;;;;;;;;;;;;;;1.30;70.26;94166.88;5065349;23;20331;-69
2023/04/05 01:19:59;;;;;;;;;;;;;;;1.21;70.25;94170.97;5067465;23;20396;-70
2023/04/05 01:22:12;;;;;;;;;;;;;;;1.37;69.67;94168.03;5042317;23;19936;-76
2023/04/05 01:24:17;;;;;;;;;;;;;;;1.42;69.11;94165.16;5040269;23;19949;-75
2023/04/05 01:26:34;;;;;;;;;;;;;;;1.45;69.59;94170.06;5041354;23;20313;-75
2023/04/05 01:28:35;;;;;;;;;;;;;;;1.41;69.53;94173.81;5066802;23;19928;-76
2023/04/05 01:30:38;;;;;;;;;;;;;;;1.36;69.66;94169.00;5065729;23;20237;-74
2023/04/05 01:32:40;;;;;;;;;;;;;;;1.35;70.08;94176.84;5039515;23;19925;-70
2023/04/05 01:34:47;;;;;;;;;;;;;;;1.43;70.25;94170.16;5066712;23;19992;-68
2023/04/05 01:36:49;;;;;;;;;;;;;;;1.57;69.61;94174.28;5040638;23;19929;-70
2023/04/05 01:38:51;;;;;;;;;;;;;;;1.74;69.63;94167.00;5040454;23;20362;-69
2023/04/05 01:40:52;;;;;;;;;;;;;;;1.82;68.74;94167.22;5040593;23;19922;-69
2023/04/05 01:42:54;;;;;;;;;;;;;;;1.74;68.50;94175.59;5040401;23;19946;-70
2023/04/05 01:44:56;;;;;;;;;;;;;;;1.61;68.81;94174.84;5065158;23;19932;-70
2023/04/05 01:46:57;;;;;;;;;;;;;;;1.50;68.83;94165.34;5039799;23;19928;-68
2023/04/05 01:48:59;;;;;;;;;;;;;;;1.49;69.14;94175.81;5064884;23;19925;-69
2023/04/05 01:51:00;;;;;;;;;;;;;;;1.26;69.72;94169.81;5066386;23;19948;-69
2023/04/05 01:53:02;;;;;;;;;;;;;;;1.13;70.57;94172.50;5066118;23;19945;-69
2023/04/05 01:55:03;;;;;;;;;;;;;;;1.21;70.71;94173.56;5040824;23;20106;-68
2023/04/05 01:57:05;;;;;;;;;;;;;;;1.25;70.88;94161.25;5066266;23;20251;-70
2023/04/05 01:59:06;;;;;;;;;;;;;;;1.27;70.05;94163.69;5039610;23;19921;-70
2023/04/05 02:01:08;;;;;;;;;;;;;;;1.31;70.02;94165.13;5064805;23;19921;-69
2023/04/05 02:03:10;;;;;;;;;;;;;;;1.46;70.09;94163.94;5064412;23;20236;-74
2023/04/05 02:05:11;;;;;;;;;;;;;;;1.57;69.80;94160.53;5066045;23;20275;-76
2023/04/05 02:07:13;;;;;;;;;;;;;;;1.67;69.60;94169.22;5065967;23;20606;-75
2023/04/05 02:09:14;;;;;;;;;;;;;;;1.59;68.91;94167.25;5066519;23;19921;-74
2023/04/05 02:11:16;;;;;;;;;;;;;;;1.62;69.11;94168.78;5066187;23;19930;-76
2023/04/05 02:13:18;;;;;;;;;;;;;;;1.60;69.25;94171.47;5065930;23;19945;-69
2023/04/05 02:15:19;;;;;;;;;;;;;;;1.58;69.15;94168.19;5065642;23;19921;-70
2023/04/05 02:17:21;;;;;;;;;;;;;;;1.73;68.96;94162.78;5038948;23;19977;-70
2023/04/05 02:19:22;;;;;;;;;;;;;;;1.55;68.82;94165.00;5040422;23;20006;-70
2023/04/05 02:21:24;;;;;;;;;;;;;;;1.60;69.54;94173.22;5066142;23;20020;-74
2023/04/05 02:23:26;;;;;;;;;;;;;;;1.62;69.04;94167.00;5066300;23;20416;-76
2023/04/05 02:25:28;;;;;;;;;;;;;;;1.53;69.83;94169.50;5065694;23;20301;-74
2023/04/05 02:27:30;;;;;;;;;;;;;;;1.61;68.84;94167.13;5065259;23;19933;-74
2023/04/05 02:29:33;;;;;;;;;;;;;;;1.63;68.89;94171.25;5039661;23;20369;-75
2023/04/05 02:31:35;;;;;;;;;;;;;;;1.66;69.17;94177.09;5039146;23;19921;-74
2023/04/05 02:33:37;;;;;;;;;;;;;;;1.71;68.55;94170.63;5065301;23;20370;-74
2023/04/05 02:35:38;;;;;;;;;;;;;;;1.79;69.01;94168.28;5066165;23;20316;-74
2023/04/05 02:37:40;;;;;;;;;;;;;;;1.87;68.48;94172.84;5066400;23;19921;-75
2023/04/05 02:39:42;;;;;;;;;;;;;;;1.71;68.37;94175.00;5065859;23;19925;-74
2023/04/05 02:41:43;;;;;;;;;;;;;;;1.77;68.87;94169.34;5065703;23;20287;-74
2023/04/05 02:43:45;;;;;;;;;;;;;;;1.80;68.78;94154.41;5039005;23;19933;-75
2023/04/05 02:45:46;;;;;;;;;;;;;;;1.86;68.44;94167.81;5064858;23;19928;-74
2023/04/05 02:47:48;;;;;;;;;;;;;;;1.76;68.54;94165.09;5064851;23;19921;-74
2023/04/05 02:49:50;;;;;;;;;;;;;;;1.48;69.28;94169.81;5066764;23;20359;-72
2023/04/05 02:51:51;;;;;;;;;;;;;;;1.49;69.66;94165.50;5066524;23;19933;-75
2023/04/05 02:53:53;;;;;;;;;;;;;;;1.45;69.65;94162.31;5040025;23;19949;-74
2023/04/05 02:55:55;;;;;;;;;;;;;;;1.46;69.49;94165.72;5065938;23;20520;-75
2023/04/05 02:58:03;;;;;;;;;;;;;;;1.53;69.89;94159.97;5040053;23;20607;-79
2023/04/05 03:00:07;;;;;;;;;;;;;;;1.61;69.82;94162.78;5038517;23;19921;-74
2023/04/05 03:02:09;;;;;;;;;;;;;;;1.70;69.00;94153.50;5064370;23;19921;-75
2023/04/05 03:04:13;;;;;;;;;;;;;;;1.68;68.52;94160.56;5065788;23;19932;-77
2023/04/05 03:06:14;;;;;;;;;;;;;;;1.73;68.87;94161.00;5039128;23;20483;-74
2023/04/05 03:08:22;;;;;;;;;;;;;;;1.77;69.22;94166.78;5064993;23;19952;-75
2023/04/05 03:10:27;;;;;;;;;;;;;;;1.71;69.22;94165.47;5063754;23;19976;-74
2023/04/05 03:12:29;;;;;;;;;;;;;;;1.76;68.96;94155.59;5038549;23;19973;-75
2023/04/05 03:14:33;;;;;;;;;;;;;;;1.80;69.20;94157.00;5063222;23;19921;-73
2023/04/05 03:16:34;;;;;;;;;;;;;;;1.79;68.86;94163.13;5064776;23;20416;-75
2023/04/05 03:18:39;;;;;;;;;;;;;;;1.72;69.27;94161.13;5065415;23;19925;-77
2023/04/05 03:20:40;;;;;;;;;;;;;;;1.56;69.30;94162.31;5064729;23;19956;-74
2023/04/05 03:22:42;;;;;;;;;;;;;;;1.58;69.26;94155.28;5065804;23;19929;-76
2023/04/05 03:24:43;;;;;;;;;;;;;;;1.47;69.45;94160.44;5065576;23;19921;-77
2023/04/05 03:26:45;;;;;;;;;;;;;;;1.54;70.14;94163.38;5040758;23;19973;-73
2023/04/05 03:28:47;;;;;;;;;;;;;;;1.60;70.05;94157.75;5040118;23;19928;-74
2023/04/05 03:30:49;;;;;;;;;;;;;;;1.66;69.36;94153.84;5064667;23;20229;-75
2023/04/05 03:32:50;;;;;;;;;;;;;;;1.67;69.54;94163.25;5039953;23;20469;-76
2023/04/05 03:34:52;;;;;;;;;;;;;;;1.72;69.91;94163.69;5065533;23;20017;-76
2023/04/05 03:36:54;;;;;;;;;;;;;;;1.59;69.88;94161.25;5040329;23;19925;-75
2023/04/05 03:38:56;;;;;;;;;;;;;;;1.68;69.87;94160.56;5016284;23;19965;-76
2023/04/05 03:40:57;;;;;;;;;;;;;;;1.67;69.63;94163.25;5065534;23;19928;-75
2023/04/05 03:42:59;;;;;;;;;;;;;;;1.74;69.83;94164.41;5065069;23;19968;-74
2023/04/05 03:45:00;;;;;;;;;;;;;;;1.76;69.82;94167.69;5064266;23;19958;-75
2023/04/05 03:47:02;;;;;;;;;;;;;;;1.80;69.62;94169.09;5064791;23;20400;-74
2023/04/05 03:49:03;;;;;;;;;;;;;;;1.82;69.53;94165.44;5065775;23;20596;-74
2023/04/05 03:51:05;;;;;;;;;;;;;;;1.83;70.13;94174.06;5065497;23;20301;-74
2023/04/05 03:53:07;;;;;;;;;;;;;;;1.84;70.58;94167.94;5065550;23;19976;-75
2023/04/05 03:55:08;;;;;;;;;;;;;;;1.80;70.73;94175.09;5065424;23;20017;-78
2023/04/05 03:57:10;;;;;;;;;;;;;;;1.73;70.87;94173.94;5039402;23;19933;-75
2023/04/05 03:59:12;;;;;;;;;;;;;;;1.66;71.62;94184.81;5065471;23;19944;-75
2023/04/05 04:01:14;;;;;;;;;;;;;;;1.69;71.29;94182.03;5064834;23;19920;-77
2023/04/05 04:03:15;;;;;;;;;;;;;;;1.68;71.50;94173.47;5064479;23;19931;-76
2023/04/05 04:05:17;;;;;;;;;;;;;;;1.82;71.64;94187.88;5065757;23;20327;-78
2023/04/05 04:07:19;;;;;;;;;;;;;;;1.50;71.87;94183.41;5065631;23;20015;-80
2023/04/05 04:09:21;;;;;;;;;;;;;;;1.47;72.54;94191.41;5065318;23;19921;-76
2023/04/05 04:11:23;;;;;;;;;;;;;;;1.29;73.48;94196.22;5065412;23;19921;-77
2023/04/05 04:13:25;;;;;;;;;;;;;;;1.41;73.41;94189.28;5066117;23;19995;-76
2023/04/05 04:15:26;;;;;;;;;;;;;;;1.52;73.29;94194.47;5065869;23;19969;-76
2023/04/05 04:17:32;;;;;;;;;;;;;;;1.37;72.96;94186.13;5065041;23;19952;-78
2023/04/05 04:19:33;;;;;;;;;;;;;;;0.99;73.84;94188.97;5065638;23;19921;-76
2023/04/05 04:21:38;;;;;;;;;;;;;;;0.76;75.21;94196.66;5063319;23;19951;-77
2023/04/05 04:23:44;;;;;;;;;;;;;;;0.95;74.98;94190.16;5067113;23;20255;-77
2023/04/05 04:25:49;;;;;;;;;;;;;;;0.90;75.64;94194.81;5067145;23;19925;-76
2023/04/05 04:27:51;;;;;;;;;;;;;;;1.17;75.07;94200.53;5067614;23;19921;-76
2023/04/05 04:30:00;;;;;;;;;;;;;;;1.27;74.16;94197.25;5018460;23;19922;-76
2023/04/05 04:32:05;;;;;;;;;;;;;;;1.35;73.95;94198.31;5068108;23;19925;-79
2023/04/05 04:34:07;;;;;;;;;;;;;;;1.54;73.37;94194.34;5068138;23;19961;-79
2023/04/05 04:36:12;;;;;;;;;;;;;;;1.49;73.47;94194.69;5068154;23;19921;-77
2023/04/05 04:38:17;;;;;;;;;;;;;;;1.56;73.18;94201.03;5042463;23;19985;-75
2023/04/05 04:40:20;;;;;;;;;;;;;;;1.58;72.81;94196.56;5042203;23;19925;-76
2023/04/05 04:42:22;;;;;;;;;;;;;;;1.71;72.78;94200.81;5041357;23;20104;-78
2023/04/05 04:44:29;;;;;;;;;;;;;;;1.81;72.30;94199.97;5067038;23;20431;-75
2023/04/05 04:46:33;;;;;;;;;;;;;;;1.82;71.77;94193.06;5069029;23;20268;-76
2023/04/05 04:48:36;;;;;;;;;;;;;;;1.86;71.37;94204.78;5067873;23;19921;-77
2023/04/05 04:50:38;;;;;;;;;;;;;;;1.85;71.10;94203.16;5067878;23;19967;-77
2023/04/05 04:52:39;;;;;;;;;;;;;;;1.81;71.06;94201.75;5067989;23;19921;-78
2023/04/05 04:54:42;;;;;;;;;;;;;;;1.84;71.21;94209.25;5067435;23;19928;-76
2023/04/05 04:56:44;;;;;;;;;;;;;;;1.90;70.89;94210.56;5066801;23;19928;-76
2023/04/05 04:58:45;;;;;;;;;;;;;;;1.78;70.61;94201.97;5067541;23;19935;-76
2023/04/05 05:00:47;;;;;;;;;;;;;;;1.22;71.42;94206.16;5065969;23;19925;-76
2023/04/05 05:02:49;;;;;;;;;;;;;;;1.36;72.23;94212.06;5065110;23;19921;-80
2023/04/05 05:04:51;;;;;;;;;;;;;;;1.32;71.66;94206.28;5067820;23;19940;-83
2023/04/05 05:06:52;;;;;;;;;;;;;;;1.51;71.51;94204.91;5041804;23;19954;-75
2023/04/05 05:08:55;;;;;;;;;;;;;;;1.51;71.11;94210.09;5042978;23;19925;-76
2023/04/05 05:10:56;;;;;;;;;;;;;;;1.69;70.73;94200.09;5066774;23;20184;-76
2023/04/05 05:12:58;;;;;;;;;;;;;;;1.52;70.97;94211.72;5066906;23;19921;-78
2023/04/05 05:14:59;;;;;;;;;;;;;;;1.40;71.19;94216.06;5067129;23;19925;-76
2023/04/05 05:17:01;;;;;;;;;;;;;;;1.42;71.36;94211.59;5067210;23;20284;-76
2023/04/05 05:19:02;;;;;;;;;;;;;;;1.49;71.66;94222.28;5042050;23;19981;-79
2023/04/05 05:21:04;;;;;;;;;;;;;;;1.46;71.17;94225.91;5042980;23;19925;-77
2023/04/05 05:23:05;;;;;;;;;;;;;;;1.54;71.35;94227.91;5068332;23;19929;-76
2023/04/05 05:25:08;;;;;;;;;;;;;;;1.72;70.97;94208.44;5067845;23;19921;-77
2023/04/05 05:27:10;;;;;;;;;;;;;;;1.81;70.79;94212.91;5069713;23;19921;-79
2023/04/05 05:29:11;;;;;;;;;;;;;;;1.96;70.08;94221.22;5043469;23;19928;-81
2023/04/05 05:31:13;;;;;;;;;;;;;;;1.93;69.73;94221.44;5067981;23;19924;-76
2023/04/05 05:33:14;;;;;;;;;;;;;;;2.04;69.70;94211.13;5066449;23;19928;-71
2023/04/05 05:35:16;;;;;;;;;;;;;;;2.11;69.07;94211.47;5066836;23;19921;-70
2023/04/05 05:37:18;;;;;;;;;;;;;;;2.15;69.10;94214.63;5066798;23;19921;-72
2023/04/05 05:39:20;;;;;;;;;;;;;;;2.12;68.93;94217.44;5041271;23;19921;-71
2023/04/05 05:41:21;;;;;;;;;;;;;;;2.11;68.76;94206.31;5067201;23;20390;-74
2023/04/05 05:43:23;;;;;;;;;;;;;;;2.09;68.60;94204.75;5066890;23;19932;-73
2023/04/05 05:45:24;;;;;;;;;;;;;;;2.13;68.56;94212.16;5040527;23;19949;-72
2023/04/05 05:47:26;;;;;;;;;;;;;;;2.27;68.11;94205.91;5066286;23;19928;-74
2023/04/05 05:49:27;;;;;;;;;;;;;;;2.40;67.53;94201.41;5067469;23;19925;-72
2023/04/05 05:51:31;;;;;;;;;;;;;;;2.40;67.39;94206.56;5016849;23;19984;-71
2023/04/05 05:53:32;;;;;;;;;;;;;;;2.22;67.22;94202.88;5067056;23;19945;-74
2023/04/05 05:55:34;;;;;;;;;;;;;;;2.32;67.47;94208.13;5067094;23;19921;-71
2023/04/05 05:57:37;;;;;;;;;;;;;;;2.36;67.34;94207.75;5040460;23;19921;-72
2023/04/05 05:59:40;;;;;;;;;;;;;;;2.41;66.75;94212.56;5041829;23;19925;-76
2023/04/05 06:01:45;;;;;;;;;;;;;;;2.32;67.17;94200.38;5068356;23;20301;-78
2023/04/05 06:03:46;;;;;;;;;;;;;;;2.37;65.95;94209.41;5066449;23;19929;-79
2023/04/05 06:05:51;;;;;;;;;;;;;;;2.52;66.02;94201.34;5066899;23;19925;-79
2023/04/05 06:07:53;;;;;;;;;;;;;;;2.55;65.88;94206.31;5040733;23;19949;-78
2023/04/05 06:09:55;;;;;;;;;;;;;;;2.52;65.40;94209.97;5067688;23;20000;-78
2023/04/05 06:11:57;;;;;;;;;;;;;;;2.43;65.72;94224.44;5068497;23;20467;-75
2023/04/05 06:13:58;;;;;;;;;;;;;;;2.42;65.97;94214.22;5068329;23;19949;-79
2023/04/05 06:16:00;;;;;;;;;;;;;;;2.45;66.12;94212.22;5065975;23;19921;-76
2023/04/05 06:18:02;;;;;;;;;;;;;;;2.36;65.33;94214.69;5068449;23;20304;-78
2023/04/05 06:20:04;;;;;;;;;;;;;;;2.50;64.64;94218.78;5068103;23;20015;-78
2023/04/05 06:22:05;;;;;;;;;;;;;;;2.47;65.52;94214.66;5068721;23;19949;-79
2023/04/05 06:24:07;;;;;;;;;;;;;;;2.40;64.91;94219.50;5067426;23;19977;-75
2023/04/05 06:26:14;;;;;;;;;;;;;;;2.31;64.52;94220.22;5066701;23;19949;-76
2023/04/05 06:28:15;;;;;;;;;;;;;;;2.54;64.80;94220.16;5040725;23;19933;-75
2023/04/05 06:30:17;;;;;;;;;;;;;;;2.69;63.96;94218.97;5066425;23;19921;-78
2023/04/05 06:32:19;;;;;;;;;;;;;;;2.55;64.74;94219.22;5039665;23;19928;-79
2023/04/05 06:34:21;;;;;;;;;;;;;;;2.51;64.48;94225.59;5041557;23;19921;-76
2023/04/05 06:36:22;;;;;;;;;;;;;;;2.44;64.87;94227.84;5067660;23;19921;-79
2023/04/05 06:38:27;;;;;;;;;;;;;;;2.54;64.70;94225.34;5067750;23;19960;-76
2023/04/05 06:40:28;;;;;;;;;;;;;;;2.67;63.96;94229.41;5041696;23;19954;-78
2023/04/05 06:42:30;;;;;;;;;;;;;;;2.79;63.54;94232.78;5041599;23;19949;-75
2023/04/05 06:44:31;;;;;;;;;;;;;;;2.70;62.71;94241.28;5066761;23;19925;-76
2023/04/05 06:46:33;;;;;;;;;;;;;;;2.72;62.71;94236.00;5067218;23;19931;-77
2023/04/05 06:48:35;;;;;;;;;;;;;;;2.49;62.82;94241.22;5066993;23;19920;-79
2023/04/05 06:50:36;;;;;;;;;;;;;;;2.52;63.33;94253.91;5042225;23;19969;-79
2023/04/05 06:52:38;;;;;;;;;;;;;;;2.53;62.82;94245.22;5042686;23;19933;-78
2023/04/05 06:54:40;;;;;;;;;;;;;;;2.61;62.81;94247.19;5066175;23;19921;-77
2023/04/05 06:56:41;;;;;;;;;;;;;;;2.69;62.76;94249.16;5041243;23;20429;-79
2023/04/05 06:58:43;;;;;;;;;;;;;;;2.78;62.58;94248.44;5067062;23;19927;-76
2023/04/05 07:00:45;;;;;;;;;;;;;;;2.72;62.84;94248.94;5066506;23;19932;-79
2023/04/05 07:02:46;;;;;;;;;;;;;;;2.75;62.61;94257.25;5041024;23;20341;-79
2023/04/05 07:04:48;;;;;;;;;;;;;;;2.79;62.74;94263.81;5068239;23;19921;-78
2023/04/05 07:06:50;;;;;;;;;;;;;;;2.83;61.80;94267.81;5068371;23;19920;-79
2023/04/05 07:08:51;;;;;;;;;;;;;;;2.86;61.93;94266.72;5067618;23;20291;-76
2023/04/05 07:10:53;;;;;;;;;;;;;;;2.97;61.41;94266.72;5068031;23;20625;-78
2023/04/05 07:12:55;;;;;;;;;;;;;;;2.99;60.70;94274.34;5067897;23;19931;-79
2023/04/05 07:14:57;;;;;;;;;;;;;;;3.06;60.25;94273.72;5067148;23;19925;-79
2023/04/05 07:16:59;;;;;;;;;;;;;;;2.83;60.74;94275.56;5066572;23;19921;-76
2023/04/05 07:19:01;;;;;;;;;;;;;;;2.80;61.46;94269.84;5066783;23;19921;-76
2023/04/05 07:21:02;;;;;;;;;;;;;;;2.83;61.98;94270.38;5067295;23;19925;-76
2023/04/05 07:23:04;;;;;;;;;;;;;;;2.67;61.27;94277.75;5041088;23;19934;-78
2023/04/05 07:25:08;;;;;;;;;;;;;;;2.75;61.33;94285.69;5067780;23;19925;-79
2023/04/05 07:27:09;;;;;;;;;;;;;;;2.89;61.09;94291.56;5068222;23;19935;-79
2023/04/05 07:29:11;;;;;;;;;;;;;;;2.99;60.48;94279.50;5040150;23;19921;-74
2023/04/05 07:31:13;;;;;;;;;;;;;;;3.13;59.94;94275.81;5068009;23;19928;-79
2023/04/05 07:33:15;;;;;;;;;;;;;;;3.17;60.06;94288.38;5068668;23;20284;-79
2023/04/05 07:35:16;;;;;;;;;;;;;;;3.15;59.94;94276.53;5067795;23;19932;-77
2023/04/05 07:37:18;;;;;;;;;;;;;;;3.28;60.13;94271.97;5067755;23;19972;-79
2023/04/05 07:39:20;;;;;;;;;;;;;;;3.34;59.93;94278.44;5066673;23;19997;-76
2023/04/05 07:41:22;;;;;;;;;;;;;;;3.45;59.57;94280.97;5041586;23;20460;-77
2023/04/05 07:43:24;;;;;;;;;;;;;;;3.35;59.38;94286.06;5064017;23;19973;-79
2023/04/05 07:45:26;;;;;;;;;;;;;;;3.08;60.09;94283.97;5067836;23;20321;-77
2023/04/05 07:47:27;;;;;;;;;;;;;;;2.71;60.76;94288.66;5042757;23;19949;-79
2023/04/05 07:49:29;;;;;;;;;;;;;;;2.83;61.20;94293.69;5044380;23;19949;-80
2023/04/05 07:51:35;;;;;;;;;;;;;;;2.86;61.03;94290.84;5042162;23;19953;-78
2023/04/05 07:53:36;;;;;;;;;;;;;;;2.90;61.30;94299.19;5070260;23;19925;-78
2023/04/05 07:55:38;;;;;;;;;;;;;;;2.94;61.50;94298.00;5069682;23;19972;-80
2023/04/05 07:57:40;;;;;;;;;;;;;;;3.07;60.89;94303.00;5044135;23;19928;-78
2023/04/05 07:59:42;;;;;;;;;;;;;;;3.16;60.13;94310.06;5042363;23;19922;-73
2023/04/05 08:01:43;;;;;;;;;;;;;;;3.01;60.14;94314.69;5068292;23;19937;-76
2023/04/05 08:03:45;;;;;;;;;;;;;;;2.88;60.23;94303.66;5045388;23;19997;-79
2023/04/05 08:05:47;;;;;;;;;;;;;;;2.88;60.59;94314.00;5042489;23;19928;-79
2023/04/05 08:07:49;;;;;;;;;;;;;;;3.01;60.26;94304.34;5044418;23;19925;-82
2023/04/05 08:09:50;;;;;;;;;;;;;;;3.09;60.12;94319.22;5019064;23;20313;-78
2023/04/05 08:11:52;;;;;;;;;;;;;;;3.03;60.23;94314.53;5068141;23;20332;-80
2023/04/05 08:13:53;;;;;;;;;;;;;;;3.00;60.61;94314.81;5068565;23;19992;-80
2023/04/05 08:15:55;;;;;;;;;;;;;;;2.92;61.10;94320.56;5041584;23;20376;-81
2023/04/05 08:17:57;;;;;;;;;;;;;;;2.89;61.55;94315.66;5067555;23;19925;-79
2023/04/05 08:19:59;;;;;;;;;;;;;;;2.85;61.14;94329.78;5067480;23;19921;-79
2023/04/05 08:22:00;;;;;;;;;;;;;;;2.98;61.53;94322.69;5070658;23;20301;-76
2023/04/05 08:24:02;;;;;;;;;;;;;;;2.99;60.88;94319.16;5067245;23;19925;-78
2023/04/05 08:26:04;;;;;;;;;;;;;;;3.01;61.09;94316.44;5067962;23;19931;-77
2023/04/05 08:28:06;;;;;;;;;;;;;;;3.03;61.02;94322.31;5042772;23;20267;-77
2023/04/05 08:30:08;;;;;;;;;;;;;;;2.94;60.86;94323.88;5069666;23;19921;-81
2023/04/05 08:32:10;;;;;;;;;;;;;;;3.12;60.76;94315.56;5042706;23;19925;-80
2023/04/05 08:34:11;;;;;;;;;;;;;;;3.14;60.71;94331.81;5068454;23;19951;-76
2023/04/05 08:36:13;;;;;;;;;;;;;;;3.05;60.82;94325.59;5067900;23;19969;-78
2023/04/05 08:38:14;;;;;;;;;;;;;;;3.16;61.04;94320.41;5067160;23;19921;-77
2023/04/05 08:40:16;;;;;;;;;;;;;;;3.18;60.90;94331.44;5066888;23;19929;-76
2023/04/05 08:42:22;;;;;;;;;;;;;;;3.27;61.23;94328.13;5040703;23;19928;-75
2023/04/05 08:44:24;;;;;;;;;;;;;;;3.24;60.46;94328.34;5040685;23;20337;-75
2023/04/05 08:46:26;;;;;;;;;;;;;;;3.10;60.66;94333.84;5016730;23;19921;-74
2023/04/05 08:48:29;;;;;;;;;;;;;;;3.25;61.27;94329.19;5040003;23;19953;-74
2023/04/05 08:50:31;;;;;;;;;;;;;;;3.30;61.61;94336.59;5040563;23;19962;-74
2023/04/05 08:52:33;;;;;;;;;;;;;;;3.16;61.73;94335.09;5067025;23;19925;-73
2023/04/05 08:54:34;;;;;;;;;;;;;;;3.07;62.27;94336.66;5066567;23;19924;-73
2023/04/05 08:56:36;;;;;;;;;;;;;;;3.22;61.42;94335.41;5067060;23;19921;-73
2023/04/05 08:58:37;;;;;;;;;;;;;;;3.03;62.83;94341.28;5064237;23;19920;-72
2023/04/05 09:00:39;;;;;;;;;;;;;;;2.98;61.72;94343.38;5066055;23;20257;-75
2023/04/05 09:02:42;;;;;;;;;;;;;;;2.97;62.48;94340.91;5039700;23;19922;-73
2023/04/05 09:04:44;;;;;;;;;;;;;;;3.22;62.28;94344.97;5041087;23;19974;-74
2023/04/05 09:06:46;;;;;;;;;;;;;;;2.85;63.21;94348.69;5039631;23;19954;-75
2023/04/05 09:08:47;;;;;;;;;;;;;;;2.86;62.18;94371.06;5040489;23;19921;-74
2023/04/05 09:10:50;;;;;;;;;;;;;;;2.77;62.52;94358.81;5041090;23;19925;-80
2023/04/05 09:12:52;;;;;;;;;;;;;;;2.97;61.92;94359.03;5042517;23;19921;-79
2023/04/05 09:14:53;;;;;;;;;;;;;;;2.92;62.30;94356.81;5018566;23;19926;-79
2023/04/05 09:16:55;;;;;;;;;;;;;;;2.51;64.46;94363.44;5068897;23;20076;-77
2023/04/05 09:18:56;;;;;;;;;;;;;;;2.34;65.88;94363.91;5067848;23;19925;-80
2023/04/05 09:21:02;;;;;;;;;;;;;;;1.86;67.09;94371.88;5068882;23;19924;-81
2023/04/05 09:23:04;;;;;;;;;;;;;;;1.22;69.21;94376.44;5069121;23;19949;-78
2023/04/05 09:25:06;;;;;;;;;;;;;;;1.40;69.39;94365.75;5044868;23;19933;-80
2023/04/05 09:27:11;;;;;;;;;;;;;;;1.39;68.86;94372.66;5019766;23;19922;-80
2023/04/05 09:29:39;;;;;;;;;;;;;;;1.30;68.85;94388.00;5069768;23;19927;-79
2023/04/05 09:31:40;;;;;;;;;;;;;;;1.29;69.03;94373.44;5065507;23;19927;-79
2023/04/05 09:33:42;;;;;;;;;;;;;;;1.49;68.07;94361.69;5043720;23;20269;-79
2023/04/05 09:35:44;;;;;;;;;;;;;;;1.66;67.73;94353.50;5043087;23;20308;-74
2023/04/05 09:37:52;;;;;;;;;;;;;;;1.32;68.61;94368.06;5068687;23;19957;-78
2023/04/05 09:40:01;;;;;;;;;;;;;;;1.48;68.93;94355.66;5068791;23;20320;-80
2023/04/05 09:42:03;;;;;;;;;;;;;;;1.50;67.63;94363.31;5069264;23;19924;-76
2023/04/05 09:44:05;;;;;;;;;;;;;;;1.09;68.67;94362.78;5041809;23;19989;-78
2023/04/05 09:46:15;;;;;;;;;;;;;;;1.11;68.92;94371.25;5067921;23;19928;-81
2023/04/05 09:48:16;;;;;;;;;;;;;;;1.14;69.16;94358.13;5067699;23;19921;-78
2023/04/05 09:50:19;;;;;;;;;;;;;;;1.02;70.11;94352.09;5068518;23;19921;-78
2023/04/05 09:52:21;;;;;;;;;;;;;;;0.95;68.84;94361.22;5041376;23;19921;-77
2023/04/05 09:54:23;;;;;;;;;;;;;;;1.07;68.30;94346.59;5040077;23;20436;-78
2023/04/05 09:56:25;;;;;;;;;;;;;;;1.45;67.52;94355.09;5041343;23;19925;-77
2023/04/05 09:58:26;;;;;;;;;;;;;;;1.39;66.62;94357.16;5066334;23;19987;-77
2023/04/05 10:00:29;;;;;;;;;;;;;;;1.63;65.96;94349.41;5040762;23;19922;-78
2023/04/05 10:02:38;;;;;;;;;;;;;;;1.44;65.87;94374.91;5041832;23;19921;-78
2023/04/05 10:04:44;;;;;;;;;;;;;;;1.42;66.48;94350.97;5019664;23;19979;-78
2023/04/05 10:06:45;;;;;;;;;;;;;;;1.33;65.83;94377.44;5019274;23;20023;-79
2023/04/05 10:08:50;;;;;;;;;;;;;;;1.51;65.45;94365.78;5041595;23;19921;-76
2023/04/05 10:10:53;;;;;;;;;;;;;;;1.95;64.16;94346.16;5040955;23;19925;-78
2023/04/05 10:13:02;;;;;;;;;;;;;;;2.29;63.42;94381.56;5040310;23;19921;-81
2023/04/05 10:15:05;;;;;;;;;;;;;;;1.67;64.79;94372.41;5041563;23;19961;-78
2023/04/05 10:17:08;;;;;;;;;;;;;;;1.87;65.57;94352.84;5066104;23;19972;-79
2023/04/05 10:19:15;;;;;;;;;;;;;;;1.74;64.57;94361.53;5067222;23;19928;-75
2023/04/05 10:21:21;;;;;;;;;;;;;;;1.46;65.57;94359.31;5041423;23;20067;-79
2023/04/05 10:23:22;;;;;;;;;;;;;;;1.22;66.01;94357.56;5068628;23;20301;-78
2023/04/05 10:25:33;;;;;;;;;;;;;;;1.19;65.94;94376.69;5069240;23;19924;-78
2023/04/05 10:27:39;;;;;;;;;;;;;;;1.07;65.37;94367.22;5042335;23;19921;-79
2023/04/05 10:29:47;;;;;;;;;;;;;;;1.15;65.85;94354.63;5041313;23;20379;-78
2023/04/05 10:31:50;;;;;;;;;;;;;;;1.17;65.74;94357.91;5041818;23;19928;-79
2023/04/05 10:33:59;;;;;;;;;;;;;;;1.22;65.41;94366.13;5041531;23;20260;-79
2023/04/05 10:36:07;;;;;;;;;;;;;;;1.23;64.99;94365.22;5067606;23;19925;-77
2023/04/05 10:38:08;;;;;;;;;;;;;;;1.39;65.39;94353.78;5043834;23;19922;-76
2023/04/05 10:40:10;;;;;;;;;;;;;;;1.75;64.91;94349.41;5066806;23;19925;-79
2023/04/05 10:42:25;;;;;;;;;;;;;;;1.92;63.46;94363.66;5065641;23;19921;-78
2023/04/05 10:44:29;;;;;;;;;;;;;;;1.55;64.66;94353.47;5016286;23;19949;-81
2023/04/05 10:46:30;;;;;;;;;;;;;;;1.59;64.30;94347.97;5065388;23;19925;-76